Time;durP1;ratioP1;P1;durP2;ratioP2;P2;SDS_P1;SDS_P2;PMS_P1;PMS_P2;Temp;Humidity;BMP_temperature;BMP_pressure;BME280_temperature;BME280_humidity;BME280_pressure;Samples;Min_cycle;Max_cycle;Signal;HPM_P1;HPM_P2
2022/11/02 08:47:54;;;;;;;4.87;1.10;;;14.10;99.90;;;;;;4467035;23;20243;-69
2022/11/02 08:50:21;;;;;;;5.47;0.80;;;14.20;99.90;;;;;;4861233;29;20218;-73
2022/11/02 08:54:45;;;;;;;4.87;1.23;;;14.20;99.90;;;;;;5110865;27;20555;-72
2022/11/02 08:57:12;;;;;;;2.70;0.80;;;14.10;99.90;;;;;;5100626;28;20201;-69
2022/11/02 08:59:39;;;;;;;4.93;0.90;;;14.10;99.90;;;;;;5104558;28;20206;-70
2022/11/02 09:02:06;;;;;;;8.43;1.03;;;13.90;99.90;;;;;;5110355;28;20229;-68
2022/11/02 09:04:33;;;;;;;4.87;0.60;;;13.80;99.90;;;;;;5110219;28;20221;-74
2022/11/02 09:06:59;;;;;;;6.37;0.93;;;13.70;99.90;;;;;;5100270;28;20209;-71
2022/11/02 09:09:26;;;;;;;2.90;0.77;;;13.50;99.90;;;;;;5089998;28;20217;-73
2022/11/02 09:11:54;;;;;;;1.20;0.50;;;13.40;99.90;;;;;;5090328;28;20198;-73
2022/11/02 09:14:21;;;;;;;5.40;0.90;;;13.50;99.90;;;;;;5089819;28;20237;-75
2022/11/02 09:16:48;;;;;;;4.73;0.70;;;13.50;99.90;;;;;;5089729;28;20552;-73
2022/11/02 09:19:15;;;;;;;3.30;0.83;;;13.70;99.90;;;;;;5090033;28;20202;-74
2022/11/02 09:21:41;;;;;;;4.53;1.10;;;13.90;99.90;;;;;;5089714;28;20198;-75
2022/11/02 09:24:09;;;;;;;1.80;0.50;;;14.00;99.90;;;;;;5089824;28;20230;-76
2022/11/02 09:26:36;;;;;;;7.17;1.00;;;14.10;99.90;;;;;;5089922;28;20203;-74
2022/11/02 09:29:04;;;;;;;1.93;0.67;;;14.10;99.90;;;;;;5089856;28;20558;-74
2022/11/02 09:31:31;;;;;;;4.33;1.03;;;14.10;99.90;;;;;;5089952;28;20203;-72
2022/11/02 09:33:58;;;;;;;7.63;1.00;;;14.10;99.90;;;;;;5089699;28;20242;-74
2022/11/02 09:36:24;;;;;;;4.57;0.60;;;14.20;99.90;;;;;;5089548;28;20214;-75
2022/11/02 09:38:51;;;;;;;3.67;0.80;;;14.00;99.90;;;;;;5089515;28;20203;-73
2022/11/02 09:41:22;;;;;;;5.50;0.80;;;14.10;99.90;;;;;;5089804;28;20210;-72
2022/11/02 09:43:57;;;;;;;7.80;0.90;;;14.20;99.90;;;;;;5089898;28;20237;-74
2022/11/02 09:46:30;;;;;;;5.37;0.63;;;14.20;99.90;;;;;;5089426;28;20203;-73
2022/11/02 09:49:00;;;;;;;6.40;1.00;;;14.30;99.90;;;;;;5089166;28;20213;-73
2022/11/02 09:51:31;;;;;;;4.03;0.80;;;14.30;99.90;;;;;;5089979;28;20538;-79
2022/11/02 09:54:05;;;;;;;3.00;0.63;;;14.20;99.90;;;;;;5089201;28;20248;-77
2022/11/02 09:56:33;;;;;;;8.47;1.10;;;14.20;99.90;;;;;;5089158;28;20203;-73
2022/11/02 09:59:02;;;;;;;6.20;0.97;;;14.30;99.90;;;;;;5089497;28;20209;-75
2022/11/02 10:01:39;;;;;;;9.37;1.30;;;14.40;99.90;;;;;;5088904;28;20206;-72
2022/11/02 10:04:45;;;;;;;5.17;1.30;;;14.30;99.90;;;;;;5087316;28;20231;-77
2022/11/02 10:07:23;;;;;;;8.70;0.93;;;14.20;99.90;;;;;;5075686;28;20596;-75
2022/11/02 10:09:54;;;;;;;2.93;0.80;;;14.30;99.90;;;;;;5075986;28;20226;-75
2022/11/02 10:12:28;;;;;;;3.10;0.70;;;14.40;99.90;;;;;;5075346;28;20600;-75
2022/11/02 10:15:04;;;;;;;8.97;1.93;;;14.30;99.90;;;;;;5075513;28;20241;-72
2022/11/02 10:17:36;;;;;;;6.20;0.83;;;14.30;99.90;;;;;;5075446;28;20271;-75
2022/11/02 10:20:07;;;;;;;4.33;0.70;;;14.20;99.90;;;;;;5075460;28;20204;-74
2022/11/02 10:22:38;;;;;;;3.10;1.03;;;14.30;99.90;;;;;;5075385;28;20207;-77
2022/11/02 10:25:06;;;;;;;6.20;0.97;;;14.40;99.90;;;;;;5075630;28;20239;-73
2022/11/02 10:27:37;;;;;;;5.80;1.03;;;14.40;99.90;;;;;;5075221;28;20569;-74
2022/11/02 10:30:07;;;;;;;5.07;0.77;;;14.40;99.90;;;;;;5075009;28;20207;-76
2022/11/02 10:32:38;;;;;;;6.37;0.90;;;14.40;99.90;;;;;;5075157;28;20214;-75
2022/11/02 10:35:12;;;;;;;5.20;0.70;;;14.60;99.90;;;;;;5074226;28;20235;-78
2022/11/02 10:37:53;;;;;;;9.90;1.00;;;14.60;99.90;;;;;;5074625;28;20199;-74
2022/11/02 10:40:35;;;;;;;8.33;1.23;;;14.50;99.90;;;;;;5074602;28;20587;-77
2022/11/02 10:43:18;;;;;;;4.77;1.20;;;14.40;99.90;;;;;;5074661;28;20653;-77
2022/11/02 10:46:05;;;;;;;7.03;0.83;;;14.50;99.90;;;;;;5074552;28;20210;-73
2022/11/02 10:48:40;;;;;;;3.80;0.93;;;14.60;99.90;;;;;;5074171;28;20199;-73
2022/11/02 10:51:11;;;;;;;10.73;1.20;;;14.70;99.90;;;;;;5073990;28;20207;-73
2022/11/02 10:53:42;;;;;;;2.07;0.60;;;14.80;99.90;;;;;;5074018;28;20323;-74
2022/11/02 10:56:15;;;;;;;23.00;3.93;;;14.90;99.90;;;;;;5074276;28;20203;-73
2022/11/02 10:58:49;;;;;;;10.47;1.47;;;15.10;99.90;;;;;;5074025;28;20203;-75
2022/11/02 11:01:16;;;;;;;19.20;3.40;;;15.20;99.90;;;;;;5074048;28;20203;-72
2022/11/02 11:03:58;;;;;;;9.40;1.87;;;15.30;99.90;;;;;;5074325;28;20219;-73
2022/11/02 11:06:28;;;;;;;8.13;0.80;;;15.40;99.90;;;;;;5074722;28;20209;-74
2022/11/02 11:09:00;;;;;;;5.37;0.80;;;15.40;99.90;;;;;;5074769;28;20203;-73
2022/11/02 11:11:30;;;;;;;6.53;1.23;;;15.40;99.90;;;;;;5074309;28;20210;-72
2022/11/02 11:13:59;;;;;;;14.73;3.17;;;15.40;99.90;;;;;;5074195;28;20251;-71
2022/11/02 11:16:37;;;;;;;6.10;1.27;;;15.40;99.90;;;;;;5073527;28;20736;-74
2022/11/02 11:19:15;;;;;;;5.33;0.70;;;15.30;99.90;;;;;;5074483;28;20210;-72
2022/11/02 11:21:42;;;;;;;5.53;0.73;;;15.40;99.90;;;;;;5074316;28;20294;-72
2022/11/02 11:24:21;;;;;;;4.83;1.00;;;15.60;99.90;;;;;;5073975;28;20227;-74
2022/11/02 11:27:03;;;;;;;8.30;0.87;;;15.80;99.90;;;;;;5074158;28;20199;-72
2022/11/02 11:29:32;;;;;;;4.73;0.90;;;15.90;99.90;;;;;;5074179;28;20207;-71
2022/11/02 11:31:59;;;;;;;6.43;1.00;;;15.80;99.90;;;;;;5074009;28;20204;-70
2022/11/02 11:34:30;;;;;;;2.37;0.83;;;15.70;99.90;;;;;;5073948;28;20235;-72
2022/11/02 11:37:06;;;;;;;6.90;0.70;;;15.70;99.90;;;;;;5074036;28;20221;-74
2022/11/02 11:39:33;;;;;;;3.93;0.60;;;15.80;99.90;;;;;;5073989;28;20209;-74
2022/11/02 11:42:00;;;;;;;2.60;0.60;;;15.90;99.90;;;;;;5073968;28;20209;-73
2022/11/02 11:44:27;;;;;;;4.53;0.70;;;16.00;99.90;;;;;;5073995;28;20223;-74
2022/11/02 11:46:57;;;;;;;5.00;0.60;;;16.00;99.90;;;;;;5073722;28;20207;-73
2022/11/02 11:49:29;;;;;;;5.90;0.40;;;15.70;99.90;;;;;;5073558;28;20210;-74
2022/11/02 11:51:57;;;;;;;4.40;0.70;;;15.60;99.90;;;;;;5073376;28;20210;-70
2022/11/02 11:54:28;;;;;;;2.17;0.50;;;15.60;99.90;;;;;;5073451;28;20241;-73
2022/11/02 11:56:56;;;;;;;7.00;0.53;;;15.40;99.90;;;;;;5073439;28;20199;-74
2022/11/02 11:59:26;;;;;;;4.00;0.63;;;15.30;99.90;;;;;;5073606;28;20298;-74
2022/11/02 12:01:57;;;;;;;4.77;0.87;;;15.20;99.90;;;;;;5073372;28;20543;-73
2022/11/02 12:04:34;;;;;;;5.33;0.60;;;15.30;99.90;;;;;;5073239;28;20586;-73
2022/11/02 12:07:24;;;;;;;3.50;0.83;;;15.60;99.90;;;;;;5073488;28;20202;-74
2022/11/02 12:10:00;;;;;;;6.63;0.77;;;15.70;99.90;;;;;;5073439;28;20213;-71
2022/11/02 12:12:38;;;;;;;7.83;0.70;;;16.00;99.90;;;;;;5073001;28;20665;-73
2022/11/02 12:15:17;;;;;;;6.13;0.70;;;16.00;99.90;;;;;;5072928;28;20712;-71
2022/11/02 12:17:56;;;;;;;4.53;0.60;;;16.10;99.90;;;;;;5073421;28;20199;-74
2022/11/02 12:20:50;;;;;;;3.30;0.67;;;16.20;99.90;;;;;;5073001;28;20666;-73
2022/11/02 12:23:37;;;;;;;3.13;0.87;;;16.10;99.90;;;;;;5073125;28;20210;-72
2022/11/02 12:26:18;;;;;;;4.30;0.63;;;16.20;99.90;;;;;;5072834;28;20214;-71
2022/11/02 12:28:50;;;;;;;5.03;0.73;;;16.30;99.90;;;;;;5072760;28;20683;-72
2022/11/02 12:31:30;;;;;;;4.03;0.50;;;16.10;99.90;;;;;;5072951;28;20538;-71
2022/11/02 12:34:21;;;;;;;6.50;0.63;;;15.90;99.90;;;;;;5072433;28;20698;-70
2022/11/02 12:37:03;;;;;;;1.73;0.40;;;15.70;99.90;;;;;;5070267;28;20207;-70
2022/11/02 12:39:42;;;;;;;3.00;0.53;;;15.80;99.90;;;;;;5072490;28;20298;-71
2022/11/02 12:42:23;;;;;;;4.47;0.50;;;15.90;99.90;;;;;;5072025;28;20206;-70
2022/11/02 12:45:05;;;;;;;3.97;0.60;;;15.80;99.90;;;;;;5072708;28;20241;-71
2022/11/02 12:47:52;;;;;;;3.13;0.80;;;15.70;99.90;;;;;;5072552;28;20581;-71
2022/11/02 12:50:32;;;;;;;5.33;0.70;;;15.70;99.90;;;;;;5071952;28;20233;-71
2022/11/02 12:53:12;;;;;;;4.40;0.73;;;15.80;99.90;;;;;;5072158;28;20214;-70
2022/11/02 12:55:45;;;;;;;1.10;0.43;;;15.70;99.90;;;;;;5071578;28;20239;-71
2022/11/02 12:58:17;;;;;;;5.23;0.33;;;15.60;99.90;;;;;;5072531;28;20542;-71
2022/11/02 13:00:48;;;;;;;1.53;0.43;;;15.50;99.90;;;;;;5072594;28;20203;-72
2022/11/02 13:03:28;;;;;;;4.57;0.70;;;15.50;99.90;;;;;;5072853;28;20221;-71
2022/11/02 13:06:01;;;;;;;5.53;0.70;;;15.60;99.90;;;;;;5075650;28;20552;-71
2022/11/02 13:08:35;;;;;;;5.47;0.50;;;15.60;99.90;;;;;;5081463;28;20191;-71
2022/11/02 13:11:06;;;;;;;3.50;0.50;;;15.50;99.90;;;;;;5082142;28;20199;-69
2022/11/02 13:13:37;;;;;;;7.43;1.17;;;15.50;99.90;;;;;;5080707;28;20206;-71
2022/11/02 13:16:07;;;;;;;2.53;0.53;;;15.40;99.90;;;;;;5081828;28;20944;-71
2022/11/02 13:18:42;;;;;;;6.53;1.33;;;15.40;99.90;;;;;;5072250;28;20749;-71
2022/11/02 13:21:11;;;;;;;7.27;0.63;;;15.30;99.90;;;;;;5078488;28;20653;-71
2022/11/02 13:23:44;;;;;;;5.30;0.40;;;15.30;99.90;;;;;;5081853;28;20222;-70
2022/11/02 13:26:16;;;;;;;4.33;0.60;;;15.30;99.90;;;;;;5083011;28;20191;-70
2022/11/02 13:28:47;;;;;;;6.30;0.60;;;15.20;99.90;;;;;;5082285;28;20203;-70
2022/11/02 13:31:25;;;;;;;5.23;0.60;;;15.10;99.90;;;;;;5091414;28;20689;-70
2022/11/02 13:33:55;;;;;;;1.93;0.40;;;15.10;99.90;;;;;;5083054;28;20723;-70
2022/11/02 13:36:22;;;;;;;4.10;0.97;;;15.20;99.90;;;;;;5081399;28;20236;-70
2022/11/02 13:38:56;;;;;;;1.30;0.80;;;15.20;99.90;;;;;;5090139;28;20198;-70
2022/11/02 13:41:51;;;;;;;3.53;0.50;;;15.20;99.90;;;;;;5093404;28;20198;-69
2022/11/02 13:44:42;;;;;;;3.40;0.63;;;15.00;99.90;;;;;;5094358;28;20257;-72
2022/11/02 13:47:28;;;;;;;5.60;0.70;;;14.90;99.90;;;;;;5094254;28;20213;-72
2022/11/02 13:49:57;;;;;;;2.23;0.50;;;14.90;99.90;;;;;;5096240;28;20205;-72
2022/11/02 13:52:31;;;;;;;1.57;0.50;;;14.90;99.90;;;;;;5095990;28;20209;-72
2022/11/02 13:55:02;;;;;;;2.93;0.60;;;14.90;99.90;;;;;;5095757;28;20248;-72
2022/11/02 13:57:34;;;;;;;1.30;0.33;;;14.90;99.90;;;;;;5095887;28;20202;-73
2022/11/02 14:00:04;;;;;;;3.23;0.50;;;15.00;99.90;;;;;;5096083;28;20198;-74
2022/11/02 14:02:36;;;;;;;3.87;0.87;;;15.00;99.90;;;;;;5096034;28;20209;-75
2022/11/02 14:05:03;;;;;;;3.47;0.50;;;15.00;99.90;;;;;;5095955;28;20226;-74
2022/11/02 14:07:34;;;;;;;8.10;0.60;;;15.00;99.90;;;;;;5096040;28;20305;-75
2022/11/02 14:10:06;;;;;;;3.63;0.63;;;15.00;99.90;;;;;;5095524;28;20206;-74
2022/11/02 14:12:44;;;;;;;7.30;0.53;;;15.00;99.90;;;;;;5096007;28;20199;-74
2022/11/02 14:15:47;;;;;;;2.73;0.50;;;14.90;99.90;;;;;;5095723;28;20238;-74
2022/11/02 14:18:27;;;;;;;1.97;0.37;;;15.00;99.90;;;;;;5095758;28;20209;-73
2022/11/02 14:20:54;;;;;;;3.27;0.80;;;15.00;99.90;;;;;;5095252;28;20206;-74
2022/11/02 14:23:38;;;;;;;4.03;0.40;;;15.10;99.90;;;;;;5094779;28;20259;-74
2022/11/02 14:26:31;;;;;;;1.60;0.40;;;15.00;99.90;;;;;;5096002;28;20213;-74
2022/11/02 14:28:58;;;;;;;4.27;0.67;;;14.90;99.90;;;;;;5095720;28;20202;-72
2022/11/02 14:31:39;;;;;;;3.80;0.47;;;14.90;99.90;;;;;;5095720;28;20212;-72
2022/11/02 14:34:21;;;;;;;3.40;0.50;;;14.90;99.90;;;;;;5095685;28;20230;-73
2022/11/02 14:37:01;;;;;;;2.17;0.30;;;14.90;99.90;;;;;;5095290;28;20580;-72
2022/11/02 14:39:41;;;;;;;3.60;0.60;;;14.90;99.90;;;;;;5095430;28;20739;-72
2022/11/02 14:42:31;;;;;;;2.43;0.50;;;14.80;99.90;;;;;;5095006;28;20680;-73
2022/11/02 14:45:10;;;;;;;1.50;0.50;;;14.90;99.90;;;;;;5073697;22;20243;-69
2022/11/02 14:47:38;;;;;;;3.03;0.50;;;14.80;99.90;;;;;;5034495;28;20209;-69
2022/11/02 14:50:13;;;;;;;1.40;0.30;;;14.70;99.90;;;;;;5034403;28;20209;-69
2022/11/02 14:52:42;;;;;;;7.53;0.57;;;14.80;99.90;;;;;;5034094;28;20215;-71
2022/11/02 14:55:25;;;;;;;3.60;0.30;;;14.70;99.90;;;;;;5033809;28;20232;-69
2022/11/02 14:57:58;;;;;;;2.70;0.30;;;14.70;99.90;;;;;;5033926;28;20682;-68
2022/11/02 15:00:30;;;;;;;1.60;0.60;;;14.70;99.90;;;;;;5034474;28;20284;-72
2022/11/02 15:02:58;;;;;;;2.80;0.60;;;14.70;99.90;;;;;;5034585;28;20211;-68
2022/11/02 15:05:30;;;;;;;1.63;0.30;;;14.70;99.90;;;;;;5034259;28;20228;-69
2022/11/02 15:08:00;;;;;;;1.57;0.43;;;14.70;99.90;;;;;;5034731;28;20749;-69
2022/11/02 15:10:39;;;;;;;3.87;0.60;;;14.70;99.90;;;;;;5034307;28;20667;-68
2022/11/02 15:13:47;;;;;;;1.80;0.97;;;14.60;99.90;;;;;;5034391;28;20668;-71
2022/11/02 15:16:40;;;;;;;0.97;0.30;;;14.50;99.90;;;;;;4973230;28;20242;-71
2022/11/02 15:19:38;;;;;;;3.43;0.40;;;14.50;99.90;;;;;;4973474;28;20219;-70
2022/11/02 15:22:43;;;;;;;2.60;0.50;;;14.50;99.90;;;;;;5027368;28;20227;-69
2022/11/02 15:25:15;;;;;;;4.70;0.63;;;14.50;99.90;;;;;;5027676;28;20220;-69
2022/11/02 15:27:44;;;;;;;3.00;0.70;;;14.50;99.90;;;;;;5034100;28;20209;-68
2022/11/02 15:30:15;;;;;;;2.80;0.50;;;14.40;99.90;;;;;;5034274;28;20200;-72
2022/11/02 15:32:47;;;;;;;2.63;0.43;;;14.40;99.90;;;;;;5033733;28;20559;-71
2022/11/02 15:35:19;;;;;;;1.97;0.53;;;14.30;99.90;;;;;;5034194;28;20243;-69
2022/11/02 15:37:46;;;;;;;4.87;0.67;;;14.30;99.90;;;;;;5034309;28;20205;-70
2022/11/02 15:40:20;;;;;;;4.47;0.37;;;14.20;99.90;;;;;;5034261;28;20215;-72
2022/11/02 15:42:57;;;;;;;5.13;0.67;;;14.20;99.90;;;;;;5033762;28;20215;-72
2022/11/02 15:45:44;;;;;;;5.13;0.80;;;14.10;99.90;;;;;;5033427;28;20717;-72
2022/11/02 15:48:22;;;;;;;10.13;0.87;;;14.10;99.90;;;;;;5034037;28;20213;-72
2022/11/02 15:50:58;;;;;;;2.80;0.50;;;14.00;99.90;;;;;;5033913;28;20574;-72
2022/11/02 15:53:49;;;;;;;5.40;0.57;;;14.00;99.90;;;;;;5033879;28;20204;-69
2022/11/02 15:56:42;;;;;;;2.00;0.60;;;14.00;99.90;;;;;;5033767;28;20237;-72
2022/11/02 15:59:31;;;;;;;6.10;0.60;;;13.90;99.90;;;;;;5028752;28;20225;-70
2022/11/02 16:02:24;;;;;;;2.33;0.67;;;13.90;99.90;;;;;;5033379;28;20230;-72
2022/11/02 16:04:53;;;;;;;2.33;0.40;;;13.80;99.90;;;;;;5033701;28;20232;-72
2022/11/02 16:07:20;;;;;;;1.70;0.47;;;13.70;99.90;;;;;;5033654;28;20201;-73
2022/11/02 16:09:47;;;;;;;3.60;0.30;;;13.60;99.90;;;;;;5033530;28;20214;-73
2022/11/02 16:12:17;;;;;;;1.73;0.40;;;13.60;99.90;;;;;;5033117;28;20215;-72
2022/11/02 16:14:50;;;;;;;2.43;0.50;;;13.60;99.90;;;;;;5033055;28;20233;-72
2022/11/02 16:17:23;;;;;;;1.67;0.50;;;13.40;99.90;;;;;;5032754;28;20211;-69
2022/11/02 16:19:50;;;;;;;2.30;0.60;;;13.40;99.90;;;;;;5032894;28;20287;-71
2022/11/02 16:22:24;;;;;;;4.27;0.77;;;13.40;99.90;;;;;;5030911;28;20300;-71
2022/11/02 16:24:53;;;;;;;6.90;0.80;;;13.40;99.90;;;;;;5030510;28;20247;-69
2022/11/02 16:27:20;;;;;;;2.17;0.60;;;13.30;99.90;;;;;;5032084;28;20197;-70
2022/11/02 16:29:48;;;;;;;2.43;0.50;;;13.20;99.90;;;;;;5031880;28;20201;-69
2022/11/02 16:32:15;;;;;;;3.13;0.63;;;13.20;99.90;;;;;;5030421;28;20682;-71
2022/11/02 16:34:44;;;;;;;2.83;1.27;;;13.10;99.90;;;;;;5030470;28;20220;-70
2022/11/02 16:37:14;;;;;;;4.37;0.70;;;13.00;99.90;;;;;;5031310;28;20204;-71
2022/11/02 16:39:45;;;;;;;1.97;0.60;;;13.00;99.90;;;;;;5031892;28;20205;-69
2022/11/02 16:42:16;;;;;;;2.40;0.80;;;13.00;99.90;;;;;;5031897;28;20215;-71
2022/11/02 16:44:53;;;;;;;4.47;1.00;;;12.90;99.90;;;;;;5032613;28;20319;-71
2022/11/02 16:47:29;;;;;;;4.93;1.33;;;12.90;99.90;;;;;;5032381;28;20215;-71
2022/11/02 16:50:00;;;;;;;4.40;0.60;;;12.90;99.90;;;;;;5032572;28;20681;-69
2022/11/02 16:52:31;;;;;;;4.80;0.77;;;12.80;99.90;;;;;;5033003;28;20211;-71
2022/11/02 16:54:58;;;;;;;1.20;0.50;;;12.80;99.90;;;;;;5032654;28;20323;-71
2022/11/02 16:57:27;;;;;;;6.53;0.70;;;12.80;99.90;;;;;;5032848;28;20205;-70
2022/11/02 16:59:56;;;;;;;2.80;0.50;;;12.70;99.90;;;;;;5033054;28;20674;-71
2022/11/02 17:02:31;;;;;;;4.83;1.07;;;12.70;99.90;;;;;;5032900;28;20215;-71
2022/11/02 17:05:00;;;;;;;3.27;0.97;;;12.60;99.90;;;;;;5032819;28;20224;-70
2022/11/02 17:07:30;;;;;;;4.50;0.73;;;12.60;99.90;;;;;;5032771;28;20298;-70
2022/11/02 17:09:59;;;;;;;2.77;0.53;;;12.60;99.90;;;;;;5032678;28;20209;-70
2022/11/02 17:12:32;;;;;;;2.37;0.53;;;12.60;99.90;;;;;;5032677;28;20307;-72
2022/11/02 17:15:01;;;;;;;4.77;1.00;;;12.60;99.90;;;;;;5033675;28;20710;-72
2022/11/02 17:17:35;;;;;;;4.60;1.30;;;12.60;99.90;;;;;;5036692;28;20287;-71
2022/11/02 17:20:23;;;;;;;4.83;1.10;;;12.60;99.90;;;;;;5036612;28;20257;-71
2022/11/02 17:22:53;;;;;;;2.90;0.70;;;12.60;99.90;;;;;;5036817;28;20295;-70
2022/11/02 17:25:22;;;;;;;3.17;0.60;;;12.60;99.90;;;;;;5036391;28;20227;-69
2022/11/02 17:27:50;;;;;;;7.40;0.90;;;12.50;99.90;;;;;;5036575;28;20300;-69
2022/11/02 17:30:43;;;;;;;3.50;0.60;;;12.60;99.90;;;;;;5035779;28;20232;-70
2022/11/02 17:33:16;;;;;;;3.67;0.70;;;12.60;99.90;;;;;;5035749;28;20336;-71
2022/11/02 17:35:47;;;;;;;3.70;0.70;;;12.70;99.90;;;;;;5036342;28;20243;-70
2022/11/02 17:38:14;;;;;;;3.87;1.47;;;12.70;99.90;;;;;;5036129;28;20208;-69
2022/11/02 17:40:41;;;;;;;6.17;1.03;;;12.70;99.90;;;;;;5036434;28;20216;-71
2022/11/02 17:43:06;;;;;;;7.37;0.83;;;12.70;99.90;;;;;;5036255;28;20201;-68
2022/11/02 17:45:36;;;;;;;5.43;0.60;;;12.70;99.90;;;;;;5036053;28;20243;-69
2022/11/02 17:48:04;;;;;;;6.17;1.00;;;12.70;99.90;;;;;;5036258;28;20204;-69
2022/11/02 17:50:32;;;;;;;5.70;0.90;;;12.70;99.90;;;;;;5036189;28;20212;-69
2022/11/02 17:53:02;;;;;;;5.63;0.97;;;12.70;99.90;;;;;;5036228;28;20209;-68
2022/11/02 17:55:31;;;;;;;1.23;0.50;;;12.70;99.90;;;;;;5026019;28;20715;-68
2022/11/02 17:57:58;;;;;;;3.43;1.10;;;12.70;99.90;;;;;;5022121;28;20564;-69
2022/11/02 18:00:27;;;;;;;5.37;0.63;;;12.70;99.90;;;;;;5029172;28;20205;-69
2022/11/02 18:02:55;;;;;;;3.43;0.70;;;12.70;99.90;;;;;;5028304;28;20204;-68
2022/11/02 18:05:24;;;;;;;2.90;0.70;;;12.70;99.90;;;;;;5021422;28;20225;-69
2022/11/02 18:07:51;;;;;;;5.37;0.80;;;12.60;99.90;;;;;;5027344;28;20201;-69
2022/11/02 18:10:22;;;;;;;4.33;0.87;;;12.60;99.90;;;;;;5025985;28;20209;-68
2022/11/02 18:12:50;;;;;;;3.83;0.87;;;12.70;99.90;;;;;;5028376;28;20570;-68
2022/11/02 18:15:20;;;;;;;3.93;0.47;;;12.70;99.90;;;;;;5026689;28;20323;-69
2022/11/02 18:17:47;;;;;;;9.27;1.13;;;12.70;99.90;;;;;;5028668;28;20206;-68
2022/11/02 18:20:15;;;;;;;5.90;0.80;;;12.70;99.90;;;;;;5024310;28;20202;-69
2022/11/02 18:22:42;;;;;;;4.93;1.10;;;12.60;99.90;;;;;;5029225;28;20205;-68
2022/11/02 18:25:10;;;;;;;1.60;0.70;;;12.60;99.90;;;;;;5026356;28;20721;-69
2022/11/02 18:27:39;;;;;;;1.63;0.83;;;12.60;99.90;;;;;;5022593;28;20220;-68
2022/11/02 18:30:10;;;;;;;4.63;1.03;;;12.60;99.90;;;;;;5026708;28;20287;-68
2022/11/02 18:32:37;;;;;;;4.77;1.13;;;12.50;99.90;;;;;;5023234;28;20201;-69
2022/11/02 18:35:05;;;;;;;3.27;0.90;;;12.40;99.90;;;;;;5016858;28;20312;-69
2022/11/02 18:37:32;;;;;;;4.07;0.97;;;12.50;99.90;;;;;;5028847;28;20570;-68
2022/11/02 18:39:59;;;;;;;2.83;1.03;;;12.50;99.90;;;;;;5028157;28;20236;-68
2022/11/02 18:42:25;;;;;;;5.50;0.80;;;12.50;99.90;;;;;;5028225;28;20202;-68
2022/11/02 18:44:54;;;;;;;4.30;1.00;;;12.60;99.90;;;;;;5026149;28;20228;-69
2022/11/02 18:47:20;;;;;;;2.13;0.87;;;12.60;99.90;;;;;;5021229;28;20301;-69
2022/11/02 18:49:47;;;;;;;3.03;0.87;;;12.60;99.90;;;;;;5028917;28;20201;-68
2022/11/02 18:52:15;;;;;;;7.20;1.03;;;12.60;99.90;;;;;;5030354;28;20208;-68
2022/11/02 18:54:41;;;;;;;8.13;0.90;;;12.50;99.90;;;;;;5026874;28;20221;-69
2022/11/02 18:57:08;;;;;;;4.73;1.10;;;12.50;99.90;;;;;;5026108;28;20726;-68
2022/11/02 18:59:35;;;;;;;4.77;0.90;;;12.40;99.90;;;;;;5025137;28;20563;-69
2022/11/02 19:02:05;;;;;;;4.93;0.80;;;12.40;99.90;;;;;;5030378;28;20197;-68
2022/11/02 19:04:31;;;;;;;6.23;0.90;;;12.40;99.90;;;;;;5027920;28;20228;-68
2022/11/02 19:09:43;;;;;;;3.57;0.63;;;12.50;99.90;;;;;;5028025;28;20215;-69
2022/11/02 19:12:13;;;;;;;4.23;1.03;;;12.40;99.90;;;;;;5024661;28;20205;-67
2022/11/02 19:14:41;;;;;;;5.37;1.23;;;12.40;99.90;;;;;;5029943;28;20560;-68
2022/11/02 19:17:10;;;;;;;7.07;0.80;;;12.40;99.90;;;;;;5025277;28;20228;-68
2022/11/02 19:19:39;;;;;;;3.70;0.90;;;12.40;99.90;;;;;;5027195;28;20209;-69
2022/11/02 19:22:06;;;;;;;3.57;0.90;;;12.40;99.90;;;;;;5027934;28;20219;-69
2022/11/02 19:24:33;;;;;;;4.03;1.00;;;12.40;99.90;;;;;;5031297;28;20595;-68
2022/11/02 19:27:00;;;;;;;1.57;0.57;;;12.40;99.90;;;;;;5023646;28;20201;-69
2022/11/02 19:29:27;;;;;;;6.17;1.40;;;12.30;99.90;;;;;;5025709;28;20208;-69
2022/11/02 19:31:54;;;;;;;8.30;1.17;;;12.30;99.90;;;;;;5023779;28;20206;-70
2022/11/02 19:34:22;;;;;;;4.93;0.97;;;12.40;99.90;;;;;;5031058;28;20235;-69
2022/11/02 19:36:49;;;;;;;3.13;0.80;;;12.40;99.90;;;;;;5027950;28;20753;-69
2022/11/02 19:39:16;;;;;;;1.53;0.73;;;12.30;99.90;;;;;;5027349;28;20197;-69
2022/11/02 19:41:43;;;;;;;2.33;0.60;;;12.40;99.90;;;;;;5028870;28;20230;-69
2022/11/02 19:44:09;;;;;;;7.97;1.63;;;12.40;99.90;;;;;;5027551;28;20231;-69
2022/11/02 19:46:36;;;;;;;3.10;1.20;;;12.40;99.90;;;;;;5026863;28;20210;-69
2022/11/02 19:49:03;;;;;;;3.93;0.80;;;12.40;99.90;;;;;;5024588;28;20206;-69
2022/11/02 19:51:31;;;;;;;6.63;1.30;;;12.50;99.90;;;;;;5025957;28;20200;-69
2022/11/02 19:53:59;;;;;;;6.43;1.23;;;12.40;99.90;;;;;;5029988;28;20231;-69
2022/11/02 19:56:28;;;;;;;4.47;0.87;;;12.40;99.90;;;;;;5023307;28;20231;-69
2022/11/02 19:58:55;;;;;;;2.97;0.67;;;12.40;99.90;;;;;;5026069;28;20205;-69
2022/11/02 20:01:23;;;;;;;2.43;0.90;;;12.50;99.90;;;;;;5026461;28;20203;-69
2022/11/02 20:03:51;;;;;;;8.57;1.00;;;12.40;99.90;;;;;;5027041;28;20324;-69
2022/11/02 20:06:20;;;;;;;3.67;1.03;;;12.40;99.90;;;;;;5027526;28;20212;-69
2022/11/02 20:08:50;;;;;;;5.97;0.97;;;12.50;99.90;;;;;;5023656;28;20560;-68
2022/11/02 20:11:17;;;;;;;7.67;1.20;;;12.50;99.90;;;;;;5024235;28;20219;-69
2022/11/02 20:13:46;;;;;;;4.83;0.93;;;12.50;99.90;;;;;;5021798;28;20229;-69
2022/11/02 20:16:15;;;;;;;4.77;0.80;;;12.40;99.90;;;;;;5026532;28;20228;-69
2022/11/02 20:18:43;;;;;;;2.63;0.90;;;12.50;99.90;;;;;;5025549;28;20201;-68
2022/11/02 20:21:12;;;;;;;7.10;1.00;;;12.50;99.90;;;;;;5021500;28;20209;-69
2022/11/02 20:23:40;;;;;;;3.30;0.90;;;12.50;99.90;;;;;;5029837;28;20205;-69
2022/11/02 20:26:10;;;;;;;5.40;0.70;;;12.50;99.90;;;;;;5023548;28;20679;-69
2022/11/02 20:28:38;;;;;;;4.37;0.90;;;12.50;99.90;;;;;;5021327;28;20216;-69
2022/11/02 20:31:07;;;;;;;6.07;0.93;;;12.50;99.90;;;;;;5022893;28;20228;-69
2022/11/02 20:33:35;;;;;;;3.40;1.00;;;12.50;99.90;;;;;;5026879;28;20208;-69
2022/11/02 20:36:01;;;;;;;3.47;0.70;;;12.60;99.90;;;;;;5023719;28;20224;-69
2022/11/02 20:38:29;;;;;;;6.07;1.10;;;12.60;99.90;;;;;;5028113;28;20216;-69
2022/11/02 20:41:03;;;;;;;3.13;0.73;;;12.60;99.90;;;;;;5020524;28;20212;-70
2022/11/02 20:43:34;;;;;;;5.00;0.90;;;12.60;99.90;;;;;;5023731;28;20607;-70
2022/11/02 20:46:03;;;;;;;6.67;0.90;;;12.60;99.90;;;;;;5028403;28;20690;-70
2022/11/02 20:48:30;;;;;;;4.87;1.10;;;12.60;99.90;;;;;;5029115;28;20209;-69
2022/11/02 20:50:57;;;;;;;2.67;1.00;;;12.50;99.90;;;;;;5017654;28;20206;-68
2022/11/02 20:53:24;;;;;;;2.03;0.60;;;12.60;99.90;;;;;;5025206;28;20266;-69
2022/11/02 20:55:51;;;;;;;4.43;1.03;;;12.50;99.90;;;;;;5031473;28;20209;-69
2022/11/02 20:58:18;;;;;;;3.67;0.90;;;12.50;99.90;;;;;;5032185;28;20718;-69
2022/11/02 21:00:47;;;;;;;6.80;1.23;;;12.60;99.90;;;;;;5032830;28;20205;-70
2022/11/02 21:03:15;;;;;;;3.40;0.70;;;12.50;99.90;;;;;;5032789;28;20209;-69
2022/11/02 21:05:42;;;;;;;3.73;0.80;;;12.60;99.90;;;;;;5032679;28;20239;-69
2022/11/02 21:08:09;;;;;;;3.30;0.63;;;12.60;99.90;;;;;;5032655;28;20201;-69
2022/11/02 21:10:36;;;;;;;7.37;1.83;;;12.60;99.90;;;;;;5032464;28;20213;-69
2022/11/02 21:15:49;;;;;;;2.73;0.80;;;12.70;99.90;;;;;;5032613;28;20599;-69
2022/11/02 21:18:16;;;;;;;6.07;0.67;;;12.70;99.90;;;;;;5032603;28;20208;-70
2022/11/02 21:20:43;;;;;;;4.50;0.80;;;12.70;99.90;;;;;;5032659;28;20215;-69
2022/11/02 21:23:11;;;;;;;2.67;0.90;;;12.70;99.90;;;;;;5032696;28;20233;-70
2022/11/02 21:25:37;;;;;;;3.03;0.60;;;12.60;99.90;;;;;;5032390;28;20220;-69
2022/11/02 21:28:05;;;;;;;9.63;0.97;;;12.70;99.90;;;;;;5032627;28;20226;-70
2022/11/02 21:30:33;;;;;;;5.70;0.90;;;12.70;99.90;;;;;;5032626;28;20209;-69
2022/11/02 21:33:01;;;;;;;5.30;0.80;;;12.70;99.90;;;;;;5032359;28;20220;-70
2022/11/02 21:35:27;;;;;;;3.33;0.83;;;12.70;99.90;;;;;;5032248;28;20224;-70
2022/11/02 21:37:57;;;;;;;5.47;0.70;;;12.60;99.90;;;;;;5032701;28;20239;-70
2022/11/02 21:40:24;;;;;;;5.13;0.60;;;12.60;99.90;;;;;;5032591;28;20213;-69
2022/11/02 21:42:51;;;;;;;6.77;0.73;;;12.60;99.90;;;;;;5032358;28;20213;-68
2022/11/02 21:45:18;;;;;;;2.40;0.67;;;12.60;99.90;;;;;;5032449;28;20235;-69
2022/11/02 21:47:45;;;;;;;6.43;0.80;;;12.60;99.90;;;;;;5032315;28;20212;-71
2022/11/02 21:50:13;;;;;;;2.93;0.43;;;12.60;99.90;;;;;;5032201;28;20311;-70
2022/11/02 21:52:40;;;;;;;2.77;0.60;;;12.60;99.90;;;;;;5032493;28;20213;-69
2022/11/02 21:55:07;;;;;;;3.63;0.90;;;12.60;99.90;;;;;;5032649;28;20228;-69
2022/11/02 21:57:35;;;;;;;6.40;0.67;;;12.70;99.90;;;;;;5032340;28;20233;-70
2022/11/02 22:00:01;;;;;;;2.53;0.67;;;12.70;99.90;;;;;;5032393;28;20209;-70
2022/11/02 22:02:27;;;;;;;5.10;0.77;;;12.70;99.90;;;;;;5035391;28;20205;-69
2022/11/02 22:04:54;;;;;;;3.77;0.70;;;12.70;99.90;;;;;;5035906;28;20232;-69